CheckWX is a tool to help pilots better visualize weather data.  It is not intended as a substitute for an official pre-flight weather briefing.

01:03:09 UTC

42J METAR
Keystone Airpark
Keystone Heights, Florida, USA
Current

28 mins ago

K42J 200035Z AUTO 06004KT 10SM FEW040 SCT048 BKN055 25/25 A3006 RMK A01 TSNO
Observed
Aug-20 @ 00:35 UTC
Wind
  • 060° at 4 KTS
Visibility
10 SM
Flight Rules
VFR
Cloud Levels
  • Few at 4,000' AGL
  • Scattered at 4,800' AGL
  • Broken at 5,500' AGL
Temperature
25°C / 77°F
Dewpoint
25°C / 77°F
Humidity
100%
Altimeter
30.06" Hg
Pressure
1017.92 hPa
Previous

48 mins ago

K42J 200015Z AUTO 03004KT 9SM CLR 26/25 A3005 RMK A01 TSNO
Observed
Aug-20 @ 00:15 UTC
Wind
  • 030° at 4 KTS
Visibility
9 SM
Flight Rules
VFR
Cloud Levels
  • Clear skies
Temperature
26°C / 79°F
Dewpoint
25°C / 77°F
Humidity
94%
Altimeter
30.05" Hg
Pressure
1017.62 hPa
Previous

1 hour ago

K42J 192355Z AUTO 33003KT 9SM CLR 26/25 A3004 RMK A01 TSNO
Observed
Aug-19 @ 23:55 UTC
Wind
  • 330° at 3 KTS
Visibility
9 SM
Flight Rules
VFR
Cloud Levels
  • Clear skies
Temperature
26°C / 79°F
Dewpoint
25°C / 77°F
Humidity
94%
Altimeter
30.04" Hg
Pressure
1017.32 hPa